sensor_id;sensor_type;location;lat;lon;timestamp;pressure;altitude;pressure_sealevel;temperature;humidity
49297;BME280;35163;48.878;18.040;2023-05-11T00:01:56;98451.66;;;15.14;45.01
49297;BME280;35163;48.878;18.040;2023-05-11T00:04:24;98446.56;;;15.11;44.91
49297;BME280;35163;48.878;18.040;2023-05-11T00:06:51;98441.59;;;15.06;45.13
49297;BME280;35163;48.878;18.040;2023-05-11T00:09:18;98443.66;;;15.00;45.42
49297;BME280;35163;48.878;18.040;2023-05-11T00:11:44;98444.72;;;14.96;45.51
49297;BME280;35163;48.878;18.040;2023-05-11T00:14:11;98439.47;;;14.97;45.76
49297;BME280;35163;48.878;18.040;2023-05-11T00:16:38;98441.31;;;14.95;45.75
49297;BME280;35163;48.878;18.040;2023-05-11T00:19:04;98442.28;;;14.92;45.73
49297;BME280;35163;48.878;18.040;2023-05-11T00:21:31;98435.63;;;14.87;46.07
49297;BME280;35163;48.878;18.040;2023-05-11T00:24:01;98440.06;;;14.85;46.09
49297;BME280;35163;48.878;18.040;2023-05-11T00:26:27;98435.91;;;14.80;46.36
49297;BME280;35163;48.878;18.040;2023-05-11T00:28:54;98442.00;;;14.79;46.21
49297;BME280;35163;48.878;18.040;2023-05-11T00:31:21;98442.31;;;14.73;46.47
49297;BME280;35163;48.878;18.040;2023-05-11T00:33:48;98433.59;;;14.74;46.68
49297;BME280;35163;48.878;18.040;2023-05-11T00:36:14;98438.88;;;14.73;46.55
49297;BME280;35163;48.878;18.040;2023-05-11T00:38:41;98436.53;;;14.66;46.51
49297;BME280;35163;48.878;18.040;2023-05-11T00:41:08;98436.63;;;14.65;46.52
49297;BME280;35163;48.878;18.040;2023-05-11T00:43:34;98435.94;;;14.61;46.68
49297;BME280;35163;48.878;18.040;2023-05-11T00:46:02;98435.94;;;14.61;46.94
49297;BME280;35163;48.878;18.040;2023-05-11T00:48:29;98437.06;;;14.55;47.09
49297;BME280;35163;48.878;18.040;2023-05-11T00:50:58;98439.06;;;14.50;47.30
49297;BME280;35163;48.878;18.040;2023-05-11T00:53:25;98442.56;;;14.49;47.04
49297;BME280;35163;48.878;18.040;2023-05-11T00:55:52;98435.06;;;14.43;47.01
49297;BME280;35163;48.878;18.040;2023-05-11T00:58:19;98429.16;;;14.39;47.40
49297;BME280;35163;48.878;18.040;2023-05-11T01:00:46;98434.41;;;14.38;47.54
49297;BME280;35163;48.878;18.040;2023-05-11T01:03:15;98429.66;;;14.28;47.90
49297;BME280;35163;48.878;18.040;2023-05-11T01:14:06;98433.53;;;14.19;47.59
49297;BME280;35163;48.878;18.040;2023-05-11T01:16:39;98431.00;;;14.18;47.47
49297;BME280;35163;48.878;18.040;2023-05-11T01:22:08;98443.38;;;14.13;47.97
49297;BME280;35163;48.878;18.040;2023-05-11T01:25:09;98448.84;;;14.06;49.13
49297;BME280;35163;48.878;18.040;2023-05-11T01:27:47;98446.44;;;14.02;49.73
49297;BME280;35163;48.878;18.040;2023-05-11T01:30:39;98446.59;;;13.99;49.42
49297;BME280;35163;48.878;18.040;2023-05-11T01:33:10;98444.97;;;13.96;49.05
49297;BME280;35163;48.878;18.040;2023-05-11T01:35:44;98439.00;;;13.94;47.75
49297;BME280;35163;48.878;18.040;2023-05-11T01:38:12;98442.25;;;13.99;47.62
49297;BME280;35163;48.878;18.040;2023-05-11T01:40:40;98446.66;;;13.97;48.17
49297;BME280;35163;48.878;18.040;2023-05-11T01:43:12;98441.88;;;13.88;49.55
49297;BME280;35163;48.878;18.040;2023-05-11T01:45:45;98435.84;;;13.87;48.83
49297;BME280;35163;48.878;18.040;2023-05-11T01:48:20;98436.59;;;13.89;48.26
49297;BME280;35163;48.878;18.040;2023-05-11T01:50:49;98442.66;;;13.90;48.18
49297;BME280;35163;48.878;18.040;2023-05-11T01:53:16;98434.94;;;13.88;48.07
49297;BME280;35163;48.878;18.040;2023-05-11T01:55:45;98442.66;;;13.90;47.94
49297;BME280;35163;48.878;18.040;2023-05-11T01:58:13;98440.13;;;13.88;47.84
49297;BME280;35163;48.878;18.040;2023-05-11T02:00:43;98444.34;;;13.91;47.78
49297;BME280;35163;48.878;18.040;2023-05-11T02:03:11;98430.66;;;13.87;48.10
49297;BME280;35163;48.878;18.040;2023-05-11T02:05:39;98439.00;;;13.94;47.95
49297;BME280;35163;48.878;18.040;2023-05-11T02:08:08;98436.47;;;13.92;48.18
49297;BME280;35163;48.878;18.040;2023-05-11T02:10:36;98440.84;;;13.92;48.37
49297;BME280;35163;48.878;18.040;2023-05-11T02:13:04;98438.31;;;13.90;48.56
49297;BME280;35163;48.878;18.040;2023-05-11T02:15:36;98427.91;;;13.90;48.28
49297;BME280;35163;48.878;18.040;2023-05-11T02:18:07;98433.97;;;13.91;48.57
49297;BME280;35163;48.878;18.040;2023-05-11T02:20:38;98434.84;;;13.90;48.70
49297;BME280;35163;48.878;18.040;2023-05-11T02:23:08;98430.56;;;13.89;48.29
49297;BME280;35163;48.878;18.040;2023-05-11T02:25:39;98431.63;;;13.84;48.58
49297;BME280;35163;48.878;18.040;2023-05-11T02:28:06;98427.97;;;13.89;48.34
49297;BME280;35163;48.878;18.040;2023-05-11T02:30:41;98432.25;;;13.90;48.08
49297;BME280;35163;48.878;18.040;2023-05-11T02:33:10;98426.72;;;13.97;47.98
49297;BME280;35163;48.878;18.040;2023-05-11T02:35:42;98432.97;;;13.93;47.92
49297;BME280;35163;48.878;18.040;2023-05-11T02:38:10;98432.88;;;13.95;47.75
49297;BME280;35163;48.878;18.040;2023-05-11T02:40:50;98427.53;;;13.98;47.92
49297;BME280;35163;48.878;18.040;2023-05-11T02:43:23;98438.72;;;14.00;48.48
49297;BME280;35163;48.878;18.040;2023-05-11T02:45:52;98435.91;;;13.85;50.48
49297;BME280;35163;48.878;18.040;2023-05-11T02:48:26;98437.03;;;13.80;51.07
49297;BME280;35163;48.878;18.040;2023-05-11T02:50:54;98430.63;;;13.68;51.84
49297;BME280;35163;48.878;18.040;2023-05-11T02:53:24;98428.41;;;13.58;52.61
49297;BME280;35163;48.878;18.040;2023-05-11T02:55:53;98425.88;;;13.57;52.64
49297;BME280;35163;48.878;18.040;2023-05-11T02:58:21;98432.06;;;13.54;53.01
49297;BME280;35163;48.878;18.040;2023-05-11T03:00:48;98429.41;;;13.56;52.40
49297;BME280;35163;48.878;18.040;2023-05-11T03:03:15;98432.91;;;13.55;53.14
49297;BME280;35163;48.878;18.040;2023-05-11T03:05:42;98426.13;;;13.51;54.01
49297;BME280;35163;48.878;18.040;2023-05-11T03:08:09;98426.97;;;13.51;53.81
49297;BME280;35163;48.878;18.040;2023-05-11T03:10:36;98426.19;;;13.49;54.02
49297;BME280;35163;48.878;18.040;2023-05-11T03:13:06;98425.25;;;13.52;53.61
49297;BME280;35163;48.878;18.040;2023-05-11T03:15:34;98423.34;;;13.55;51.58
49297;BME280;35163;48.878;18.040;2023-05-11T03:18:04;98431.78;;;13.60;51.63
49297;BME280;35163;48.878;18.040;2023-05-11T03:20:33;98433.59;;;13.58;53.03
49297;BME280;35163;48.878;18.040;2023-05-11T03:23:05;98429.75;;;13.46;54.08
49297;BME280;35163;48.878;18.040;2023-05-11T03:25:33;98425.34;;;13.48;54.20
49297;BME280;35163;48.878;18.040;2023-05-11T03:28:01;98421.91;;;13.48;52.89
49297;BME280;35163;48.878;18.040;2023-05-11T03:30:29;98421.69;;;13.54;50.97
49297;BME280;35163;48.878;18.040;2023-05-11T03:32:56;98423.22;;;13.58;49.79
49297;BME280;35163;48.878;18.040;2023-05-11T03:35:24;98426.53;;;13.62;49.49
49297;BME280;35163;48.878;18.040;2023-05-11T03:37:53;98418.53;;;13.67;48.70
49297;BME280;35163;48.878;18.040;2023-05-11T03:40:22;98423.47;;;13.73;48.43
49297;BME280;35163;48.878;18.040;2023-05-11T03:42:53;98428.44;;;13.78;47.85
49297;BME280;35163;48.878;18.040;2023-05-11T03:45:21;98430.75;;;13.84;48.85
49297;BME280;35163;48.878;18.040;2023-05-11T03:47:49;98430.97;;;13.79;51.23
49297;BME280;35163;48.878;18.040;2023-05-11T03:50:18;98424.94;;;13.79;51.29
49297;BME280;35163;48.878;18.040;2023-05-11T03:52:46;98421.28;;;13.83;49.67
49297;BME280;35163;48.878;18.040;2023-05-11T03:55:13;98432.53;;;13.83;49.28
49297;BME280;35163;48.878;18.040;2023-05-11T03:57:40;98426.63;;;13.80;52.84
49297;BME280;35163;48.878;18.040;2023-05-11T04:00:09;98431.59;;;13.65;53.72
49297;BME280;35163;48.878;18.040;2023-05-11T04:02:36;98428.56;;;13.55;54.18
49297;BME280;35163;48.878;18.040;2023-05-11T04:05:09;98427.31;;;13.43;56.00
49297;BME280;35163;48.878;18.040;2023-05-11T04:07:37;98425.69;;;13.41;56.92
49297;BME280;35163;48.878;18.040;2023-05-11T04:10:05;98424.00;;;13.40;56.03
49297;BME280;35163;48.878;18.040;2023-05-11T04:12:32;98423.81;;;13.44;53.69
49297;BME280;35163;48.878;18.040;2023-05-11T04:14:59;98424.38;;;13.51;52.08
49297;BME280;35163;48.878;18.040;2023-05-11T04:17:25;98431.59;;;13.44;55.13
49297;BME280;35163;48.878;18.040;2023-05-11T04:19:52;98434.91;;;13.27;57.84
49297;BME280;35163;48.878;18.040;2023-05-11T04:22:19;98433.22;;;13.26;58.26
49297;BME280;35163;48.878;18.040;2023-05-11T04:24:45;98432.34;;;13.25;57.92
49297;BME280;35163;48.878;18.040;2023-05-11T04:27:12;98437.56;;;13.25;57.77
49297;BME280;35163;48.878;18.040;2023-05-11T04:29:39;98432.97;;;13.32;57.33
49297;BME280;35163;48.878;18.040;2023-05-11T04:32:05;98431.41;;;13.28;57.22
49297;BME280;35163;48.878;18.040;2023-05-11T04:34:32;98430.41;;;13.31;57.30
49297;BME280;35163;48.878;18.040;2023-05-11T04:36:58;98430.38;;;13.32;57.33
49297;BME280;35163;48.878;18.040;2023-05-11T04:39:25;98436.78;;;13.44;54.15
49297;BME280;35163;48.878;18.040;2023-05-11T04:41:55;98427.84;;;13.52;52.47
49297;BME280;35163;48.878;18.040;2023-05-11T04:44:21;98435.56;;;13.53;56.39
49297;BME280;35163;48.878;18.040;2023-05-11T04:46:48;98437.06;;;13.59;55.52
49297;BME280;35163;48.878;18.040;2023-05-11T04:49:15;98437.84;;;13.61;55.10
49297;BME280;35163;48.878;18.040;2023-05-11T04:51:44;98435.69;;;13.71;50.74
49297;BME280;35163;48.878;18.040;2023-05-11T04:54:11;98439.63;;;13.80;49.09
49297;BME280;35163;48.878;18.040;2023-05-11T04:56:38;98444.28;;;13.92;48.37
49297;BME280;35163;48.878;18.040;2023-05-11T04:59:06;98440.47;;;14.00;47.71
49297;BME280;35163;48.878;18.040;2023-05-11T05:01:33;98437.81;;;14.01;47.15
49297;BME280;35163;48.878;18.040;2023-05-11T05:03:59;98444.28;;;14.12;47.17
49297;BME280;35163;48.878;18.040;2023-05-11T05:06:26;98446.59;;;14.18;46.82
49297;BME280;35163;48.878;18.040;2023-05-11T05:08:53;98441.25;;;14.21;50.12
49297;BME280;35163;48.878;18.040;2023-05-11T05:11:19;98442.78;;;14.25;48.08
49297;BME280;35163;48.878;18.040;2023-05-11T05:13:46;98445.28;;;14.28;47.63
49297;BME280;35163;48.878;18.040;2023-05-11T05:16:15;98452.69;;;14.36;47.27
49297;BME280;35163;48.878;18.040;2023-05-11T05:18:42;98452.47;;;14.41;51.31
49297;BME280;35163;48.878;18.040;2023-05-11T05:21:09;98456.09;;;14.38;54.45
49297;BME280;35163;48.878;18.040;2023-05-11T05:23:38;98459.66;;;14.36;55.07
49297;BME280;35163;48.878;18.040;2023-05-11T05:26:04;98459.81;;;14.32;55.16
49297;BME280;35163;48.878;18.040;2023-05-11T05:28:31;98460.44;;;14.38;55.11
49297;BME280;35163;48.878;18.040;2023-05-11T05:30:58;98462.69;;;14.45;53.43
49297;BME280;35163;48.878;18.040;2023-05-11T05:33:24;98462.38;;;14.52;50.21
49297;BME280;35163;48.878;18.040;2023-05-11T05:35:51;98463.03;;;14.57;50.80
49297;BME280;35163;48.878;18.040;2023-05-11T05:38:18;98461.91;;;14.63;48.84
49297;BME280;35163;48.878;18.040;2023-05-11T05:40:45;98458.84;;;14.72;47.54
49297;BME280;35163;48.878;18.040;2023-05-11T05:43:12;98463.56;;;14.83;47.07
49297;BME280;35163;48.878;18.040;2023-05-11T05:45:39;98470.09;;;14.92;48.21
49297;BME280;35163;48.878;18.040;2023-05-11T05:48:05;98467.09;;;15.00;46.39
49297;BME280;35163;48.878;18.040;2023-05-11T05:50:32;98472.94;;;15.05;45.87
49297;BME280;35163;48.878;18.040;2023-05-11T05:52:59;98469.94;;;15.13;45.96
49297;BME280;35163;48.878;18.040;2023-05-11T05:55:25;98461.75;;;15.21;45.39
49297;BME280;35163;48.878;18.040;2023-05-11T05:57:52;98474.28;;;15.30;45.60
49297;BME280;35163;48.878;18.040;2023-05-11T06:00:19;98468.72;;;15.38;45.66
49297;BME280;35163;48.878;18.040;2023-05-11T06:02:46;98478.66;;;15.47;46.20
49297;BME280;35163;48.878;18.040;2023-05-11T06:05:13;98472.38;;;15.51;46.07
49297;BME280;35163;48.878;18.040;2023-05-11T06:07:40;98476.38;;;15.59;44.94
49297;BME280;35163;48.878;18.040;2023-05-11T06:10:09;98476.81;;;15.67;44.41
49297;BME280;35163;48.878;18.040;2023-05-11T06:12:36;98487.69;;;15.75;44.04
49297;BME280;35163;48.878;18.040;2023-05-11T06:15:03;98486.53;;;15.81;44.22
49297;BME280;35163;48.878;18.040;2023-05-11T06:17:30;98483.50;;;15.89;45.07
49297;BME280;35163;48.878;18.040;2023-05-11T06:19:58;98481.31;;;15.97;44.72
49297;BME280;35163;48.878;18.040;2023-05-11T06:22:25;98484.56;;;16.02;43.35
49297;BME280;35163;48.878;18.040;2023-05-11T06:24:52;98482.38;;;16.11;43.04
49297;BME280;35163;48.878;18.040;2023-05-11T06:27:18;98488.13;;;16.18;42.67
49297;BME280;35163;48.878;18.040;2023-05-11T06:29:45;98484.94;;;16.28;42.71
49297;BME280;35163;48.878;18.040;2023-05-11T06:32:12;98493.19;;;16.37;43.00
49297;BME280;35163;48.878;18.040;2023-05-11T06:34:38;98487.66;;;16.43;43.07
49297;BME280;35163;48.878;18.040;2023-05-11T06:37:05;98500.09;;;16.54;43.38
49297;BME280;35163;48.878;18.040;2023-05-11T06:39:35;98496.22;;;16.61;43.51
49297;BME280;35163;48.878;18.040;2023-05-11T06:42:03;98494.53;;;16.76;43.33
49297;BME280;35163;48.878;18.040;2023-05-11T06:44:32;98492.91;;;16.90;43.26
49297;BME280;35163;48.878;18.040;2023-05-11T06:46:59;98491.09;;;17.07;42.37
49297;BME280;35163;48.878;18.040;2023-05-11T06:49:26;98488.56;;;17.21;42.09
49297;BME280;35163;48.878;18.040;2023-05-11T06:51:53;98493.00;;;17.35;42.22
49297;BME280;35163;48.878;18.040;2023-05-11T06:54:19;98482.22;;;17.56;42.24
49297;BME280;35163;48.878;18.040;2023-05-11T06:56:46;98489.97;;;17.72;41.75
49297;BME280;35163;48.878;18.040;2023-05-11T06:59:12;98484.75;;;17.87;40.82
49297;BME280;35163;48.878;18.040;2023-05-11T07:01:39;98489.50;;;18.09;41.68
49297;BME280;35163;48.878;18.040;2023-05-11T07:04:08;98493.25;;;18.34;41.65
49297;BME280;35163;48.878;18.040;2023-05-11T07:06:35;98486.75;;;18.55;40.18
49297;BME280;35163;48.878;18.040;2023-05-11T07:09:02;98489.97;;;18.73;40.53
49297;BME280;35163;48.878;18.040;2023-05-11T07:11:30;98479.13;;;18.92;39.27
49297;BME280;35163;48.878;18.040;2023-05-11T07:13:59;98484.69;;;19.15;38.29
49297;BME280;35163;48.878;18.040;2023-05-11T07:16:26;98478.00;;;19.37;38.06
49297;BME280;35163;48.878;18.040;2023-05-11T07:18:52;98479.16;;;19.59;36.09
49297;BME280;35163;48.878;18.040;2023-05-11T07:21:19;98482.94;;;19.81;35.29
49297;BME280;35163;48.878;18.040;2023-05-11T07:23:49;98472.09;;;19.99;35.14
49297;BME280;35163;48.878;18.040;2023-05-11T07:26:15;98471.78;;;20.17;34.62
49297;BME280;35163;48.878;18.040;2023-05-11T07:28:42;98479.31;;;20.34;34.33
49297;BME280;35163;48.878;18.040;2023-05-11T07:31:09;98478.00;;;20.53;32.41
49297;BME280;35163;48.878;18.040;2023-05-11T07:33:37;98470.69;;;20.70;31.78
49297;BME280;35163;48.878;18.040;2023-05-11T07:36:07;98473.06;;;20.73;31.03
49297;BME280;35163;48.878;18.040;2023-05-11T07:38:34;98468.81;;;20.96;32.52
49297;BME280;35163;48.878;18.040;2023-05-11T07:41:02;98465.06;;;21.23;32.89
49297;BME280;35163;48.878;18.040;2023-05-11T07:43:32;98466.16;;;21.44;33.55
49297;BME280;35163;48.878;18.040;2023-05-11T07:45:58;98467.88;;;21.68;31.87
49297;BME280;35163;48.878;18.040;2023-05-11T07:48:25;98472.09;;;21.82;32.14
49297;BME280;35163;48.878;18.040;2023-05-11T07:50:52;98468.03;;;22.01;31.88
49297;BME280;35163;48.878;18.040;2023-05-11T07:53:18;98464.19;;;22.16;31.95
49297;BME280;35163;48.878;18.040;2023-05-11T07:55:45;98463.91;;;22.31;30.99
49297;BME280;35163;48.878;18.040;2023-05-11T07:58:13;98471.69;;;22.44;30.73
49297;BME280;35163;48.878;18.040;2023-05-11T08:00:39;98477.19;;;22.52;30.18
49297;BME280;35163;48.878;18.040;2023-05-11T08:03:06;98465.19;;;22.60;31.42
49297;BME280;35163;48.878;18.040;2023-05-11T08:05:33;98468.75;;;22.70;30.78
49297;BME280;35163;48.878;18.040;2023-05-11T08:08:03;98471.38;;;22.81;31.47
49297;BME280;35163;48.878;18.040;2023-05-11T08:10:30;98472.78;;;22.86;29.40
49297;BME280;35163;48.878;18.040;2023-05-11T08:12:57;98468.53;;;22.94;29.38
49297;BME280;35163;48.878;18.040;2023-05-11T08:15:27;98467.09;;;23.02;29.36
49297;BME280;35163;48.878;18.040;2023-05-11T08:17:53;98467.41;;;23.09;30.28
49297;BME280;35163;48.878;18.040;2023-05-11T08:20:20;98471.56;;;23.11;29.14
49297;BME280;35163;48.878;18.040;2023-05-11T08:22:47;98471.22;;;23.16;28.46
49297;BME280;35163;48.878;18.040;2023-05-11T08:25:14;98465.41;;;23.22;28.87
49297;BME280;35163;48.878;18.040;2023-05-11T08:27:43;98466.38;;;23.21;28.81
49297;BME280;35163;48.878;18.040;2023-05-11T08:30:10;98457.19;;;23.15;28.64
49297;BME280;35163;48.878;18.040;2023-05-11T08:32:37;98457.25;;;23.25;30.46
49297;BME280;35163;48.878;18.040;2023-05-11T08:35:23;98455.50;;;23.36;29.05
49297;BME280;35163;48.878;18.040;2023-05-11T08:37:50;98453.22;;;23.42;29.57
49297;BME280;35163;48.878;18.040;2023-05-11T08:40:18;98455.44;;;23.47;29.03
49297;BME280;35163;48.878;18.040;2023-05-11T08:42:48;98444.91;;;23.47;27.34
49297;BME280;35163;48.878;18.040;2023-05-11T08:45:19;98452.56;;;23.50;27.52
49297;BME280;35163;48.878;18.040;2023-05-11T08:47:48;98449.66;;;23.53;28.60
49297;BME280;35163;48.878;18.040;2023-05-11T08:50:20;98442.69;;;23.52;28.82
49297;BME280;35163;48.878;18.040;2023-05-11T08:52:47;98446.31;;;23.51;27.78
49297;BME280;35163;48.878;18.040;2023-05-11T08:55:16;98444.13;;;23.57;27.69
49297;BME280;35163;48.878;18.040;2023-05-11T08:57:43;98440.63;;;23.56;28.34
49297;BME280;35163;48.878;18.040;2023-05-11T09:00:14;98442.47;;;23.56;28.08
49297;BME280;35163;48.878;18.040;2023-05-11T09:02:42;98441.22;;;23.60;28.62
49297;BME280;35163;48.878;18.040;2023-05-11T09:05:09;98438.56;;;23.60;28.71
49297;BME280;35163;48.878;18.040;2023-05-11T09:07:37;98439.69;;;23.57;28.77
49297;BME280;35163;48.878;18.040;2023-05-11T09:10:15;98438.84;;;23.57;29.71
49297;BME280;35163;48.878;18.040;2023-05-11T09:12:45;98436.38;;;23.65;29.05
49297;BME280;35163;48.878;18.040;2023-05-11T09:15:12;98436.38;;;23.65;29.37
49297;BME280;35163;48.878;18.040;2023-05-11T09:17:39;98435.66;;;23.63;29.11
49297;BME280;35163;48.878;18.040;2023-05-11T09:20:06;98435.00;;;23.61;28.10
49297;BME280;35163;48.878;18.040;2023-05-11T09:22:45;98427.88;;;23.61;26.94
49297;BME280;35163;48.878;18.040;2023-05-11T09:25:14;98419.81;;;23.53;26.78
49297;BME280;35163;48.878;18.040;2023-05-11T09:27:43;98431.91;;;23.56;28.35
49297;BME280;35163;48.878;18.040;2023-05-11T09:30:11;98408.16;;;23.56;28.29
49297;BME280;35163;48.878;18.040;2023-05-11T09:32:51;98427.72;;;23.53;28.96
49297;BME280;35163;48.878;18.040;2023-05-11T09:35:32;98415.50;;;23.52;28.02
49297;BME280;35163;48.878;18.040;2023-05-11T09:38:10;98418.84;;;23.54;28.93
49297;BME280;35163;48.878;18.040;2023-05-11T09:40:41;98418.00;;;23.53;30.17
49297;BME280;35163;48.878;18.040;2023-05-11T09:43:25;98417.59;;;23.58;29.71
49297;BME280;35163;48.878;18.040;2023-05-11T09:45:54;98414.00;;;23.59;29.04
49297;BME280;35163;48.878;18.040;2023-05-11T09:48:27;98411.09;;;23.62;29.86
49297;BME280;35163;48.878;18.040;2023-05-11T09:51:02;98407.75;;;23.60;28.75
49297;BME280;35163;48.878;18.040;2023-05-11T09:53:43;98411.91;;;23.63;29.05
49297;BME280;35163;48.878;18.040;2023-05-11T09:56:12;98411.78;;;23.64;29.10
49297;BME280;35163;48.878;18.040;2023-05-11T09:58:53;98403.31;;;23.61;28.54
49297;BME280;35163;48.878;18.040;2023-05-11T10:01:30;98411.38;;;23.59;28.35
49297;BME280;35163;48.878;18.040;2023-05-11T10:04:00;98400.38;;;23.54;28.34
49297;BME280;35163;48.878;18.040;2023-05-11T10:06:49;98399.66;;;23.52;28.45
49297;BME280;35163;48.878;18.040;2023-05-11T10:09:18;98405.84;;;23.41;27.80
49297;BME280;35163;48.878;18.040;2023-05-11T10:11:49;98401.66;;;23.38;28.30
49297;BME280;35163;48.878;18.040;2023-05-11T10:14:17;98398.59;;;23.33;28.90
49297;BME280;35163;48.878;18.040;2023-05-11T10:16:53;98393.44;;;23.32;28.71
49297;BME280;35163;48.878;18.040;2023-05-11T10:19:21;98397.16;;;23.29;28.93
49297;BME280;35163;48.878;18.040;2023-05-11T10:21:50;98398.94;;;23.28;28.74
49297;BME280;35163;48.878;18.040;2023-05-11T10:24:17;98388.94;;;23.22;29.46
49297;BME280;35163;48.878;18.040;2023-05-11T10:26:49;98393.06;;;23.15;28.81
49297;BME280;35163;48.878;18.040;2023-05-11T10:29:17;98388.19;;;23.10;29.04
49297;BME280;35163;48.878;18.040;2023-05-11T10:31:45;98390.94;;;23.09;29.13
49297;BME280;35163;48.878;18.040;2023-05-11T10:34:14;98383.44;;;23.04;28.04
49297;BME280;35163;48.878;18.040;2023-05-11T10:36:43;98381.75;;;23.03;29.06
49297;BME280;35163;48.878;18.040;2023-05-11T10:39:13;98378.28;;;23.02;29.06
49297;BME280;35163;48.878;18.040;2023-05-11T10:55:55;98369.84;;;23.09;27.27
49297;BME280;35163;48.878;18.040;2023-05-11T11:01:29;98347.28;;;23.16;25.85
49297;BME280;35163;48.878;18.040;2023-05-11T11:04:02;98345.91;;;23.22;26.94
49297;BME280;35163;48.878;18.040;2023-05-11T11:06:32;98339.53;;;23.24;25.98
49297;BME280;35163;48.878;18.040;2023-05-11T11:09:12;98341.78;;;23.29;25.93
49297;BME280;35163;48.878;18.040;2023-05-11T11:11:44;98341.25;;;23.35;25.03
49297;BME280;35163;48.878;18.040;2023-05-11T11:14:13;98341.38;;;23.34;24.99
49297;BME280;35163;48.878;18.040;2023-05-11T11:17:20;98340.16;;;23.38;25.16
49297;BME280;35163;48.878;18.040;2023-05-11T11:21:57;98336.06;;;23.45;25.97
49297;BME280;35163;48.878;18.040;2023-05-11T11:27:03;98341.91;;;23.49;25.29
49297;BME280;35163;48.878;18.040;2023-05-11T11:29:32;98333.41;;;23.45;26.32
49297;BME280;35163;48.878;18.040;2023-05-11T11:34:50;98328.53;;;23.40;25.33
49297;BME280;35163;48.878;18.040;2023-05-11T11:37:19;98335.84;;;23.37;24.76
49297;BME280;35163;48.878;18.040;2023-05-11T11:39:49;98333.47;;;23.34;24.99
49297;BME280;35163;48.878;18.040;2023-05-11T11:48:05;98326.44;;;23.13;24.96
49297;BME280;35163;48.878;18.040;2023-05-11T11:50:32;98325.88;;;23.09;24.43
49297;BME280;35163;48.878;18.040;2023-05-11T11:52:59;98318.53;;;23.13;25.14
49297;BME280;35163;48.878;18.040;2023-05-11T11:55:50;98313.81;;;23.16;24.94
49297;BME280;35163;48.878;18.040;2023-05-11T12:01:06;98320.66;;;23.19;24.58
49297;BME280;35163;48.878;18.040;2023-05-11T12:03:36;98321.97;;;23.03;23.88
49297;BME280;35163;48.878;18.040;2023-05-11T12:06:04;98313.47;;;23.00;24.71
49297;BME280;35163;48.878;18.040;2023-05-11T12:08:31;98315.16;;;23.01;25.03
49297;BME280;35163;48.878;18.040;2023-05-11T12:10:59;98301.25;;;22.99;23.49
49297;BME280;35163;48.878;18.040;2023-05-11T12:13:27;98302.66;;;23.03;24.46
49297;BME280;35163;48.878;18.040;2023-05-11T12:16:13;98307.25;;;23.01;24.38
49297;BME280;35163;48.878;18.040;2023-05-11T12:18:50;98317.47;;;22.73;24.37
49297;BME280;35163;48.878;18.040;2023-05-11T12:21:21;98309.84;;;22.69;24.46
49297;BME280;35163;48.878;18.040;2023-05-11T12:23:59;98304.84;;;22.66;23.79
49297;BME280;35163;48.878;18.040;2023-05-11T12:26:30;98306.81;;;22.74;24.54
49297;BME280;35163;48.878;18.040;2023-05-11T12:29:11;98296.00;;;22.77;24.86
49297;BME280;35163;48.878;18.040;2023-05-11T12:31:45;98278.84;;;22.83;24.49
49297;BME280;35163;48.878;18.040;2023-05-11T12:34:19;98287.34;;;22.87;25.43
49297;BME280;35163;48.878;18.040;2023-05-11T12:36:53;98294.00;;;22.91;25.78
49297;BME280;35163;48.878;18.040;2023-05-11T12:39:24;98286.66;;;22.94;25.39
49297;BME280;35163;48.878;18.040;2023-05-11T12:41:54;98288.03;;;22.89;25.17
49297;BME280;35163;48.878;18.040;2023-05-11T12:44:24;98295.25;;;22.87;24.35
49297;BME280;35163;48.878;18.040;2023-05-11T12:46:52;98281.63;;;22.81;24.82
49297;BME280;35163;48.878;18.040;2023-05-11T12:49:21;98279.44;;;22.87;25.56
49297;BME280;35163;48.878;18.040;2023-05-11T12:54:28;98284.44;;;22.90;25.02
49297;BME280;35163;48.878;18.040;2023-05-11T12:56:56;98287.06;;;22.90;25.32
49297;BME280;35163;48.878;18.040;2023-05-11T12:59:34;98280.13;;;22.89;25.31
49297;BME280;35163;48.878;18.040;2023-05-11T13:02:16;98274.47;;;22.93;25.94
49297;BME280;35163;48.878;18.040;2023-05-11T13:04:51;98269.06;;;22.95;25.95
49297;BME280;35163;48.878;18.040;2023-05-11T13:07:27;98273.53;;;23.04;26.15
49297;BME280;35163;48.878;18.040;2023-05-11T13:09:58;98268.13;;;23.06;25.32
49297;BME280;35163;48.878;18.040;2023-05-11T13:12:28;98266.19;;;23.08;25.77
49297;BME280;35163;48.878;18.040;2023-05-11T13:15:09;98259.56;;;23.14;25.87
49297;BME280;35163;48.878;18.040;2023-05-11T13:17:40;98266.50;;;23.15;25.81
49297;BME280;35163;48.878;18.040;2023-05-11T13:25:31;98265.41;;;23.17;26.16
49297;BME280;35163;48.878;18.040;2023-05-11T13:27:58;98260.00;;;23.19;26.28
49297;BME280;35163;48.878;18.040;2023-05-11T13:30:26;98249.84;;;23.14;25.10
49297;BME280;35163;48.878;18.040;2023-05-11T13:32:53;98255.13;;;23.14;25.96
49297;BME280;35163;48.878;18.040;2023-05-11T13:35:20;98242.09;;;23.13;25.88
49297;BME280;35163;48.878;18.040;2023-05-11T13:37:47;98249.00;;;23.14;25.77
49297;BME280;35163;48.878;18.040;2023-05-11T13:40:13;98253.31;;;23.15;25.91
49297;BME280;35163;48.878;18.040;2023-05-11T13:42:43;98255.50;;;23.10;26.29
49297;BME280;35163;48.878;18.040;2023-05-11T13:45:10;98247.47;;;23.11;26.55
49297;BME280;35163;48.878;18.040;2023-05-11T13:47:37;98245.81;;;23.10;26.32
49297;BME280;35163;48.878;18.040;2023-05-11T13:50:04;98244.38;;;23.06;26.38
49297;BME280;35163;48.878;18.040;2023-05-11T13:52:31;98241.88;;;23.04;26.21
49297;BME280;35163;48.878;18.040;2023-05-11T13:55:00;98240.50;;;23.00;26.25